KMGE/MGE METAR and TAF weather

Enter ICAO airport designator
Station Type Date Time Source
KMGE METAR 2022/06/28 12:56 UTC NOAA

KMGE 281256Z 07006KT 7SM BKN015 BKN070 24/20 A3015 RMK AO2A SLP202 T02350198 $


Station Type Date Time Source
KMGE Decoded METAR 2022/06/28 12:56 UTC NOAA

Marietta / Dobbins Air Force Base, GA, United States (KMGE) 33-55N 084-31W 326M
Jun 28, 2022 - 08:56 AM EDT / 2022.06.28 1256 UTC
Wind: from the ENE (070 degrees) at 7 MPH (6 KT):0
Visibility: 7 mile(s):0
Sky conditions: mostly cloudy
Temperature: 74.3 F (23.5 C)
Dew Point: 67.6 F (19.8 C)
Relative Humidity: 79%
Pressure (altimeter): 30.15 in. Hg (1020 hPa)
ob: KMGE 281256Z 07006KT 7SM BKN015 BKN070 24/20 A3015 RMK AO2A SLP202 T02350198
cycle: 13

Station Type Date Time Source
KMGE TAF 2022/06/28 10:10 UTC NOAA

TAF
AMD KMGE 281004Z 2810/2903 07008KT 9999 FEW040 BKN070 OVC200 QNH3005INS
BECMG 2812/2813 08010KT 9999 VCSH BKN018 OVC080 QNH3012INS
BECMG 2813/2814 08010G15KT 9999 VCSH BKN022 OVC080 QNH3012INS
BECMG 2817/2818 09012G18KT 9999 VCTS BKN030CB BKN200 QNH3014INS
BECMG 2900/2901 11007KT 9999 VCSH SCT040 BKN120 BKN200 BKN250 QNH3016INS TX29/2821Z TN20/2812Z

Example: see airport list